sensor_id;sensor_type;location;lat;lon;timestamp;pressure;altitude;pressure_sealevel;temperature;humidity
58072;BME280;60383;46.626;18.866;2023-08-07T00:02:06;99700.56;;;16.18;90.57
58072;BME280;60383;46.626;18.866;2023-08-07T00:04:32;99688.22;;;16.20;90.85
58072;BME280;60383;46.626;18.866;2023-08-07T00:06:57;99682.50;;;16.08;91.00
58072;BME280;60383;46.626;18.866;2023-08-07T00:09:23;99680.78;;;16.01;91.70
58072;BME280;60383;46.626;18.866;2023-08-07T00:11:49;99683.13;;;16.10;91.53
58072;BME280;60383;46.626;18.866;2023-08-07T00:14:14;99686.13;;;16.22;91.15
58072;BME280;60383;46.626;18.866;2023-08-07T00:16:41;99686.97;;;16.23;90.92
58072;BME280;60383;46.626;18.866;2023-08-07T00:19:06;99682.72;;;16.20;91.23
58072;BME280;60383;46.626;18.866;2023-08-07T00:21:32;99683.97;;;16.31;91.12
58072;BME280;60383;46.626;18.866;2023-08-07T00:23:57;99691.00;;;16.20;91.31
58072;BME280;60383;46.626;18.866;2023-08-07T00:26:23;99698.00;;;16.23;91.45
58072;BME280;60383;46.626;18.866;2023-08-07T00:28:48;99698.44;;;16.26;91.51
58072;BME280;60383;46.626;18.866;2023-08-07T00:31:14;99708.63;;;16.33;90.70
58072;BME280;60383;46.626;18.866;2023-08-07T00:33:39;99703.97;;;16.33;91.36
58072;BME280;60383;46.626;18.866;2023-08-07T00:36:05;99708.22;;;16.36;91.27
58072;BME280;60383;46.626;18.866;2023-08-07T00:38:30;99702.91;;;16.41;90.47
58072;BME280;60383;46.626;18.866;2023-08-07T00:40:56;99701.41;;;16.32;91.32
58072;BME280;60383;46.626;18.866;2023-08-07T00:43:21;99694.81;;;16.33;91.32
58072;BME280;60383;46.626;18.866;2023-08-07T00:45:47;99699.06;;;16.42;90.64
58072;BME280;60383;46.626;18.866;2023-08-07T00:48:14;99695.25;;;16.29;90.73
58072;BME280;60383;46.626;18.866;2023-08-07T00:50:41;99699.50;;;16.25;91.12
58072;BME280;60383;46.626;18.866;2023-08-07T00:53:08;99700.13;;;16.27;91.68
58072;BME280;60383;46.626;18.866;2023-08-07T00:55:34;99704.16;;;16.18;91.61
58072;BME280;60383;46.626;18.866;2023-08-07T00:58:00;99693.53;;;16.22;91.43
58072;BME280;60383;46.626;18.866;2023-08-07T01:00:28;99700.53;;;16.24;92.00
58072;BME280;60383;46.626;18.866;2023-08-07T01:02:56;99694.19;;;16.37;91.08
58072;BME280;60383;46.626;18.866;2023-08-07T01:05:23;99704.41;;;16.37;90.72
58072;BME280;60383;46.626;18.866;2023-08-07T01:07:49;99703.09;;;16.33;90.59
58072;BME280;60383;46.626;18.866;2023-08-07T01:10:45;99704.16;;;16.32;90.96
58072;BME280;60383;46.626;18.866;2023-08-07T01:13:19;99698.63;;;16.18;92.17
58072;BME280;60383;46.626;18.866;2023-08-07T01:15:46;99699.28;;;16.27;91.51
58072;BME280;60383;46.626;18.866;2023-08-07T01:18:15;99704.38;;;16.30;91.08
58072;BME280;60383;46.626;18.866;2023-08-07T01:20:41;99712.03;;;16.28;91.28
58072;BME280;60383;46.626;18.866;2023-08-07T01:23:07;99708.44;;;16.27;90.79
58072;BME280;60383;46.626;18.866;2023-08-07T01:25:32;99717.75;;;16.13;91.83
58072;BME280;60383;46.626;18.866;2023-08-07T01:28:12;99705.63;;;16.07;92.28
58072;BME280;60383;46.626;18.866;2023-08-07T01:30:46;99710.72;;;15.90;93.56
58072;BME280;60383;46.626;18.866;2023-08-07T01:33:43;99715.84;;;15.93;93.30
58072;BME280;60383;46.626;18.866;2023-08-07T01:36:12;99722.59;;;15.84;93.43
58072;BME280;60383;46.626;18.866;2023-08-07T01:38:39;99723.47;;;15.91;93.31
58072;BME280;60383;46.626;18.866;2023-08-07T01:41:05;99718.56;;;15.87;93.49
58072;BME280;60383;46.626;18.866;2023-08-07T01:43:31;99720.50;;;16.06;92.98
58072;BME280;60383;46.626;18.866;2023-08-07T01:45:57;99710.72;;;16.04;92.48
58072;BME280;60383;46.626;18.866;2023-08-07T01:48:23;99717.34;;;16.09;92.71
58072;BME280;60383;46.626;18.866;2023-08-07T01:50:49;99719.03;;;16.10;92.28
58072;BME280;60383;46.626;18.866;2023-08-07T01:53:14;99718.81;;;16.12;92.26
58072;BME280;60383;46.626;18.866;2023-08-07T01:55:40;99720.94;;;16.10;92.55
58072;BME280;60383;46.626;18.866;2023-08-07T01:58:05;99728.59;;;16.08;92.61
58072;BME280;60383;46.626;18.866;2023-08-07T02:00:31;99726.25;;;16.05;92.89
58072;BME280;60383;46.626;18.866;2023-08-07T02:02:57;99718.81;;;16.12;92.60
58072;BME280;60383;46.626;18.866;2023-08-07T02:05:22;99720.31;;;16.08;92.45
58072;BME280;60383;46.626;18.866;2023-08-07T02:07:48;99721.78;;;16.04;92.73
58072;BME280;60383;46.626;18.866;2023-08-07T02:10:13;99712.25;;;16.13;92.52
58072;BME280;60383;46.626;18.866;2023-08-07T02:12:39;99712.22;;;16.06;92.65
58072;BME280;60383;46.626;18.866;2023-08-07T02:15:05;99709.06;;;16.09;92.06
58072;BME280;60383;46.626;18.866;2023-08-07T02:17:30;99705.63;;;16.07;92.03
58072;BME280;60383;46.626;18.866;2023-08-07T02:19:57;99704.19;;;16.11;92.95
58072;BME280;60383;46.626;18.866;2023-08-07T02:22:23;99711.84;;;16.16;92.56
58072;BME280;60383;46.626;18.866;2023-08-07T02:24:48;99721.59;;;16.19;92.23
58072;BME280;60383;46.626;18.866;2023-08-07T02:27:14;99714.81;;;16.21;91.90
58072;BME280;60383;46.626;18.866;2023-08-07T02:29:39;99713.75;;;16.22;91.79
58072;BME280;60383;46.626;18.866;2023-08-07T02:32:05;99713.09;;;16.20;91.51
58072;BME280;60383;46.626;18.866;2023-08-07T02:34:31;99720.13;;;16.16;91.97
58072;BME280;60383;46.626;18.866;2023-08-07T02:36:58;99722.88;;;16.16;91.93
58072;BME280;60383;46.626;18.866;2023-08-07T02:39:24;99724.16;;;16.20;91.48
58072;BME280;60383;46.626;18.866;2023-08-07T02:41:49;99736.88;;;16.08;91.54
58072;BME280;60383;46.626;18.866;2023-08-07T02:44:15;99745.19;;;16.08;91.68
58072;BME280;60383;46.626;18.866;2023-08-07T02:46:42;99739.19;;;15.97;91.97
58072;BME280;60383;46.626;18.866;2023-08-07T02:49:08;99734.50;;;15.85;92.79
58072;BME280;60383;46.626;18.866;2023-08-07T02:51:33;99734.69;;;15.83;93.02
58072;BME280;60383;46.626;18.866;2023-08-07T02:53:59;99730.63;;;15.79;93.26
58072;BME280;60383;46.626;18.866;2023-08-07T02:56:24;99735.78;;;15.89;92.72
58072;BME280;60383;46.626;18.866;2023-08-07T02:58:50;99748.44;;;15.63;93.97
58072;BME280;60383;46.626;18.866;2023-08-07T03:01:15;99739.53;;;15.68;94.33
58072;BME280;60383;46.626;18.866;2023-08-07T03:03:40;99749.00;;;15.52;94.57
58072;BME280;60383;46.626;18.866;2023-08-07T03:06:06;99748.84;;;15.60;94.55
58072;BME280;60383;46.626;18.866;2023-08-07T03:08:31;99742.31;;;15.74;93.86
58072;BME280;60383;46.626;18.866;2023-08-07T03:10:58;99739.53;;;15.68;94.04
58072;BME280;60383;46.626;18.866;2023-08-07T03:13:25;99738.06;;;15.65;94.42
58072;BME280;60383;46.626;18.866;2023-08-07T03:15:50;99739.53;;;15.68;94.87
58072;BME280;60383;46.626;18.866;2023-08-07T03:18:23;99737.00;;;15.73;94.51
58072;BME280;60383;46.626;18.866;2023-08-07T03:20:49;99740.41;;;15.81;93.95
58072;BME280;60383;46.626;18.866;2023-08-07T03:23:14;99740.41;;;15.75;94.07
58072;BME280;60383;46.626;18.866;2023-08-07T03:25:40;99734.41;;;15.64;94.51
58072;BME280;60383;46.626;18.866;2023-08-07T03:28:05;99742.31;;;15.74;93.97
58072;BME280;60383;46.626;18.866;2023-08-07T03:30:31;99743.50;;;15.52;94.84
58072;BME280;60383;46.626;18.866;2023-08-07T03:32:56;99748.03;;;15.73;94.06
58072;BME280;60383;46.626;18.866;2023-08-07T03:35:22;99752.03;;;15.63;94.58
58072;BME280;60383;46.626;18.866;2023-08-07T03:37:47;99754.13;;;15.55;95.19
58072;BME280;60383;46.626;18.866;2023-08-07T03:40:13;99750.88;;;15.86;93.72
58072;BME280;60383;46.626;18.866;2023-08-07T03:42:38;99756.81;;;15.96;93.28
58072;BME280;60383;46.626;18.866;2023-08-07T03:45:04;99756.84;;;16.03;92.33
58072;BME280;60383;46.626;18.866;2023-08-07T03:47:29;99757.28;;;16.20;91.47
58072;BME280;60383;46.626;18.866;2023-08-07T03:49:55;99769.00;;;16.36;90.94
58072;BME280;60383;46.626;18.866;2023-08-07T03:52:20;99762.84;;;16.34;90.92
58072;BME280;60383;46.626;18.866;2023-08-07T03:54:46;99771.94;;;16.21;92.08
58072;BME280;60383;46.626;18.866;2023-08-07T03:57:11;99766.66;;;16.33;92.28
58072;BME280;60383;46.626;18.866;2023-08-07T03:59:37;99762.19;;;16.52;91.99
58072;BME280;60383;46.626;18.866;2023-08-07T04:02:02;99766.88;;;16.58;90.69
58072;BME280;60383;46.626;18.866;2023-08-07T04:04:28;99780.69;;;16.51;90.29
58072;BME280;60383;46.626;18.866;2023-08-07T04:06:53;99771.13;;;16.40;90.83
58072;BME280;60383;46.626;18.866;2023-08-07T04:09:19;99773.22;;;16.32;91.12
58072;BME280;60383;46.626;18.866;2023-08-07T04:11:44;99780.03;;;16.29;91.42
58072;BME280;60383;46.626;18.866;2023-08-07T04:14:10;99781.31;;;16.40;91.87
58072;BME280;60383;46.626;18.866;2023-08-07T04:16:36;99781.34;;;16.33;92.13
58072;BME280;60383;46.626;18.866;2023-08-07T04:19:02;99780.47;;;16.26;91.95
58072;BME280;60383;46.626;18.866;2023-08-07T04:21:28;99787.91;;;16.32;92.21
58072;BME280;60383;46.626;18.866;2023-08-07T04:23:54;99785.56;;;16.22;92.19
58072;BME280;60383;46.626;18.866;2023-08-07T04:26:19;99796.19;;;16.25;92.23
58072;BME280;60383;46.626;18.866;2023-08-07T04:28:45;99796.63;;;16.36;92.09
58072;BME280;60383;46.626;18.866;2023-08-07T04:31:10;99799.38;;;16.29;92.54
58072;BME280;60383;46.626;18.866;2023-08-07T04:33:35;99793.03;;;16.42;91.96
58072;BME280;60383;46.626;18.866;2023-08-07T04:36:01;99793.25;;;16.54;90.91
58072;BME280;60383;46.626;18.866;2023-08-07T04:38:27;99791.09;;;16.56;91.33
58072;BME280;60383;46.626;18.866;2023-08-07T04:40:52;99791.31;;;16.81;89.72
58072;BME280;60383;46.626;18.866;2023-08-07T04:43:19;99784.94;;;16.60;90.32
58072;BME280;60383;46.626;18.866;2023-08-07T04:45:47;99780.88;;;16.90;89.47
58072;BME280;60383;46.626;18.866;2023-08-07T04:48:13;99787.28;;;16.97;88.43
58072;BME280;60383;46.626;18.866;2023-08-07T04:50:39;99790.25;;;17.09;88.54
58072;BME280;60383;46.626;18.866;2023-08-07T04:53:05;99790.66;;;17.06;88.69
58072;BME280;60383;46.626;18.866;2023-08-07T04:55:31;99783.63;;;17.17;87.71
58072;BME280;60383;46.626;18.866;2023-08-07T04:57:57;99785.78;;;17.15;88.57
58072;BME280;60383;46.626;18.866;2023-08-07T05:00:23;99780.34;;;17.47;86.87
58072;BME280;60383;46.626;18.866;2023-08-07T05:02:49;99780.28;;;17.67;85.27
58072;BME280;60383;46.626;18.866;2023-08-07T05:05:15;99787.03;;;17.78;84.70
58072;BME280;60383;46.626;18.866;2023-08-07T05:07:41;99784.00;;;17.86;84.18
58072;BME280;60383;46.626;18.866;2023-08-07T05:10:08;99793.16;;;17.86;84.39
58072;BME280;60383;46.626;18.866;2023-08-07T05:12:33;99795.94;;;17.86;84.41
58072;BME280;60383;46.626;18.866;2023-08-07T05:14:59;99790.41;;;17.80;84.47
58072;BME280;60383;46.626;18.866;2023-08-07T05:17:24;99785.94;;;17.79;84.45
58072;BME280;60383;46.626;18.866;2023-08-07T05:19:50;99786.16;;;17.84;83.74
58072;BME280;60383;46.626;18.866;2023-08-07T05:22:15;99792.81;;;17.69;84.38
58072;BME280;60383;46.626;18.866;2023-08-07T05:24:41;99789.00;;;17.70;84.99
58072;BME280;60383;46.626;18.866;2023-08-07T05:27:08;99786.56;;;17.87;84.30
58072;BME280;60383;46.626;18.866;2023-08-07T05:29:36;99788.72;;;18.24;81.64
58072;BME280;60383;46.626;18.866;2023-08-07T05:32:09;99786.44;;;18.14;82.09
58072;BME280;60383;46.626;18.866;2023-08-07T05:34:35;99802.44;;;18.06;82.41
58072;BME280;60383;46.626;18.866;2023-08-07T05:37:01;99798.88;;;17.92;82.53
58072;BME280;60383;46.626;18.866;2023-08-07T05:39:26;99797.84;;;17.86;83.42
58072;BME280;60383;46.626;18.866;2023-08-07T05:41:52;99785.16;;;18.10;83.47
58072;BME280;60383;46.626;18.866;2023-08-07T05:44:19;99790.22;;;18.20;85.33
58072;BME280;60383;46.626;18.866;2023-08-07T05:46:45;99798.81;;;18.44;83.98
58072;BME280;60383;46.626;18.866;2023-08-07T05:49:10;99796.69;;;18.39;80.87
58072;BME280;60383;46.626;18.866;2023-08-07T05:51:37;99804.09;;;18.77;80.51
58072;BME280;60383;46.626;18.866;2023-08-07T05:54:03;99799.50;;;18.90;79.81
58072;BME280;60383;46.626;18.866;2023-08-07T05:56:28;99798.00;;;19.12;79.33
58072;BME280;60383;46.626;18.866;2023-08-07T05:58:54;99809.84;;;19.26;77.05
58072;BME280;60383;46.626;18.866;2023-08-07T06:01:19;99804.91;;;19.28;77.32
58072;BME280;60383;46.626;18.866;2023-08-07T06:03:45;99819.28;;;19.19;79.33
58072;BME280;60383;46.626;18.866;2023-08-07T06:06:10;99807.84;;;19.34;78.08
58072;BME280;60383;46.626;18.866;2023-08-07T06:08:36;99812.75;;;19.31;78.63
58072;BME280;60383;46.626;18.866;2023-08-07T06:11:01;99812.63;;;18.76;81.71
58072;BME280;60383;46.626;18.866;2023-08-07T06:13:30;99813.81;;;18.87;82.35
58072;BME280;60383;46.626;18.866;2023-08-07T06:15:56;99820.00;;;18.89;80.08
58072;BME280;60383;46.626;18.866;2023-08-07T06:18:22;99819.88;;;19.27;78.53
58072;BME280;60383;46.626;18.866;2023-08-07T06:20:47;99823.81;;;18.94;79.16
58072;BME280;60383;46.626;18.866;2023-08-07T06:23:13;99823.00;;;18.87;81.22
58072;BME280;60383;46.626;18.866;2023-08-07T06:25:38;99827.53;;;19.07;82.09
58072;BME280;60383;46.626;18.866;2023-08-07T06:28:04;99820.81;;;18.89;79.89
58072;BME280;60383;46.626;18.866;2023-08-07T06:30:31;99821.22;;;18.99;80.90
58072;BME280;60383;46.626;18.866;2023-08-07T06:32:56;99824.84;;;19.19;80.48
58072;BME280;60383;46.626;18.866;2023-08-07T06:35:22;99826.59;;;18.94;77.40
58072;BME280;60383;46.626;18.866;2023-08-07T06:37:48;99829.44;;;18.81;78.01
58072;BME280;60383;46.626;18.866;2023-08-07T06:40:13;99827.44;;;18.95;77.16
58072;BME280;60383;46.626;18.866;2023-08-07T06:42:39;99834.31;;;19.11;77.83
58072;BME280;60383;46.626;18.866;2023-08-07T06:45:05;99834.28;;;19.36;69.97
58072;BME280;60383;46.626;18.866;2023-08-07T06:47:31;99832.34;;;19.74;67.16
58072;BME280;60383;46.626;18.866;2023-08-07T06:49:57;99831.81;;;20.02;69.60
58072;BME280;60383;46.626;18.866;2023-08-07T06:52:23;99829.22;;;20.19;66.84
58072;BME280;60383;46.626;18.866;2023-08-07T06:54:48;99835.31;;;20.28;64.87
58072;BME280;60383;46.626;18.866;2023-08-07T06:57:14;99830.84;;;20.27;64.22
58072;BME280;60383;46.626;18.866;2023-08-07T06:59:39;99836.34;;;20.15;66.62
58072;BME280;60383;46.626;18.866;2023-08-07T07:02:05;99837.00;;;20.29;66.74
58072;BME280;60383;46.626;18.866;2023-08-07T07:04:31;99835.91;;;20.30;65.54
58072;BME280;60383;46.626;18.866;2023-08-07T07:06:56;99838.00;;;20.35;62.61
58072;BME280;60383;46.626;18.866;2023-08-07T07:09:22;99839.91;;;19.29;66.13
58072;BME280;60383;46.626;18.866;2023-08-07T07:11:48;99845.72;;;19.65;66.67
58072;BME280;60383;46.626;18.866;2023-08-07T07:14:13;99835.44;;;20.03;66.52
58072;BME280;60383;46.626;18.866;2023-08-07T07:16:39;99838.44;;;20.20;67.50
58072;BME280;60383;46.626;18.866;2023-08-07T07:19:05;99839.19;;;20.27;65.12
58072;BME280;60383;46.626;18.866;2023-08-07T07:21:33;99842.91;;;20.63;65.13
58072;BME280;60383;46.626;18.866;2023-08-07T07:23:59;99849.38;;;20.76;61.63
58072;BME280;60383;46.626;18.866;2023-08-07T07:26:25;99846.88;;;20.98;62.21
58072;BME280;60383;46.626;18.866;2023-08-07T07:28:51;99847.25;;;21.13;58.83
58072;BME280;60383;46.626;18.866;2023-08-07T07:31:16;99849.06;;;21.31;59.68
58072;BME280;60383;46.626;18.866;2023-08-07T07:33:42;99858.84;;;21.46;59.94
58072;BME280;60383;46.626;18.866;2023-08-07T07:36:14;99860.78;;;21.33;56.36
58072;BME280;60383;46.626;18.866;2023-08-07T07:38:40;99871.09;;;21.68;55.81
58072;BME280;60383;46.626;18.866;2023-08-07T07:41:05;99874.00;;;21.50;55.55
58072;BME280;60383;46.626;18.866;2023-08-07T07:43:35;99871.69;;;21.70;57.15
58072;BME280;60383;46.626;18.866;2023-08-07T07:46:00;99876.56;;;21.63;54.88
58072;BME280;60383;46.626;18.866;2023-08-07T07:48:26;99886.56;;;21.76;55.40
58072;BME280;60383;46.626;18.866;2023-08-07T07:50:51;99887.28;;;21.95;55.36
58072;BME280;60383;46.626;18.866;2023-08-07T07:53:18;99891.63;;;22.03;53.12
58072;BME280;60383;46.626;18.866;2023-08-07T07:55:47;99896.88;;;22.28;51.37
58072;BME280;60383;46.626;18.866;2023-08-07T07:58:13;99895.47;;;22.14;53.29
58072;BME280;60383;46.626;18.866;2023-08-07T08:00:38;99894.94;;;22.41;51.99
58072;BME280;60383;46.626;18.866;2023-08-07T08:03:04;99905.31;;;22.45;51.67
58072;BME280;60383;46.626;18.866;2023-08-07T08:05:29;99898.69;;;21.70;51.46
58072;BME280;60383;46.626;18.866;2023-08-07T08:07:55;99908.31;;;22.15;52.49
58072;BME280;60383;46.626;18.866;2023-08-07T08:10:20;99912.78;;;22.28;53.88
58072;BME280;60383;46.626;18.866;2023-08-07T08:12:46;99909.50;;;21.54;53.30
58072;BME280;60383;46.626;18.866;2023-08-07T08:15:11;99909.63;;;21.72;52.95
58072;BME280;60383;46.626;18.866;2023-08-07T08:17:37;99897.25;;;21.67;53.31
58072;BME280;60383;46.626;18.866;2023-08-07T08:20:06;99912.38;;;21.83;55.64
58072;BME280;60383;46.626;18.866;2023-08-07T08:22:32;99912.44;;;22.12;54.24
58072;BME280;60383;46.626;18.866;2023-08-07T08:24:58;99924.94;;;22.10;50.48
58072;BME280;60383;46.626;18.866;2023-08-07T08:27:24;99917.69;;;22.49;50.20
58072;BME280;60383;46.626;18.866;2023-08-07T08:29:50;99913.88;;;22.85;48.46
58072;BME280;60383;46.626;18.866;2023-08-07T08:32:15;99919.69;;;22.83;47.25
58072;BME280;60383;46.626;18.866;2023-08-07T08:34:41;99913.22;;;22.94;48.42
58072;BME280;60383;46.626;18.866;2023-08-07T08:37:06;99910.84;;;23.03;48.57
58072;BME280;60383;46.626;18.866;2023-08-07T08:39:33;99913.06;;;23.18;46.32
58072;BME280;60383;46.626;18.866;2023-08-07T08:41:59;99909.56;;;22.94;45.68
58072;BME280;60383;46.626;18.866;2023-08-07T08:44:26;99911.72;;;23.21;46.67
58072;BME280;60383;46.626;18.866;2023-08-07T08:46:56;99912.84;;;23.37;47.80
58072;BME280;60383;46.626;18.866;2023-08-07T08:49:30;99908.75;;;23.61;45.88
58072;BME280;60383;46.626;18.866;2023-08-07T08:51:58;99905.84;;;23.73;46.67
58072;BME280;60383;46.626;18.866;2023-08-07T08:54:25;99902.31;;;23.61;47.33
58072;BME280;60383;46.626;18.866;2023-08-07T08:56:52;99904.50;;;23.59;47.25
58072;BME280;60383;46.626;18.866;2023-08-07T08:59:20;99904.50;;;23.59;46.10
58072;BME280;60383;46.626;18.866;2023-08-07T09:01:48;99897.63;;;23.89;44.14
58072;BME280;60383;46.626;18.866;2023-08-07T09:04:16;99901.72;;;23.98;46.55
58072;BME280;60383;46.626;18.866;2023-08-07T09:06:41;99912.19;;;22.84;48.02
58072;BME280;60383;46.626;18.866;2023-08-07T09:09:08;99909.88;;;22.80;48.18
58072;BME280;60383;46.626;18.866;2023-08-07T09:11:34;99909.28;;;23.24;46.57
58072;BME280;60383;46.626;18.866;2023-08-07T09:14:02;99916.94;;;23.00;46.70
58072;BME280;60383;46.626;18.866;2023-08-07T09:16:29;99912.13;;;22.95;47.07
58072;BME280;60383;46.626;18.866;2023-08-07T09:18:55;99907.44;;;22.84;49.16
58072;BME280;60383;46.626;18.866;2023-08-07T09:21:21;99904.00;;;23.45;46.56
58072;BME280;60383;46.626;18.866;2023-08-07T09:23:46;99896.25;;;23.69;44.20
58072;BME280;60383;46.626;18.866;2023-08-07T09:26:12;99897.34;;;23.85;42.85
58072;BME280;60383;46.626;18.866;2023-08-07T09:28:37;99894.91;;;24.11;42.23
58072;BME280;60383;46.626;18.866;2023-08-07T09:31:06;99897.88;;;24.04;42.05
58072;BME280;60383;46.626;18.866;2023-08-07T09:33:33;99901.97;;;24.19;42.90
58072;BME280;60383;46.626;18.866;2023-08-07T09:36:00;99901.16;;;24.68;43.55
58072;BME280;60383;46.626;18.866;2023-08-07T09:38:29;99897.94;;;24.81;39.56
58072;BME280;60383;46.626;18.866;2023-08-07T09:40:58;99898.31;;;24.90;38.89
58072;BME280;60383;46.626;18.866;2023-08-07T09:43:24;99898.25;;;25.17;37.27
58072;BME280;60383;46.626;18.866;2023-08-07T09:45:50;99900.84;;;24.64;38.61
58072;BME280;60383;46.626;18.866;2023-08-07T09:48:23;99899.47;;;24.45;39.04
58072;BME280;60383;46.626;18.866;2023-08-07T09:50:50;99883.38;;;24.30;40.73
58072;BME280;60383;46.626;18.866;2023-08-07T09:53:15;99888.66;;;24.76;40.99
58072;BME280;60383;46.626;18.866;2023-08-07T09:55:41;99877.97;;;25.05;39.16
58072;BME280;60383;46.626;18.866;2023-08-07T09:58:08;99874.22;;;25.22;39.30
58072;BME280;60383;46.626;18.866;2023-08-07T10:00:37;99868.56;;;25.54;38.44
58072;BME280;60383;46.626;18.866;2023-08-07T10:03:03;99867.56;;;25.00;38.69
58072;BME280;60383;46.626;18.866;2023-08-07T10:05:30;99876.66;;;24.80;37.93
58072;BME280;60383;46.626;18.866;2023-08-07T10:07:57;99873.56;;;24.27;38.90
58072;BME280;60383;46.626;18.866;2023-08-07T10:10:23;99890.47;;;23.93;40.86
58072;BME280;60383;46.626;18.866;2023-08-07T10:12:51;99897.34;;;23.85;40.21
58072;BME280;60383;46.626;18.866;2023-08-07T10:15:18;99900.13;;;23.29;41.65
58072;BME280;60383;46.626;18.866;2023-08-07T10:17:44;99909.41;;;23.01;42.79
58072;BME280;60383;46.626;18.866;2023-08-07T10:20:11;99905.31;;;23.20;43.06
58072;BME280;60383;46.626;18.866;2023-08-07T10:22:38;99903.88;;;23.35;42.06
58072;BME280;60383;46.626;18.866;2023-08-07T10:25:06;99903.59;;;23.92;41.07
58072;BME280;60383;46.626;18.866;2023-08-07T10:27:33;99898.59;;;24.39;40.87
58072;BME280;60383;46.626;18.866;2023-08-07T10:30:01;99907.03;;;24.44;42.26
58072;BME280;60383;46.626;18.866;2023-08-07T10:32:28;99907.06;;;24.71;42.21
58072;BME280;60383;46.626;18.866;2023-08-07T10:34:54;99913.38;;;25.16;41.92
58072;BME280;60383;46.626;18.866;2023-08-07T10:37:44;99905.19;;;25.10;38.63
58072;BME280;60383;46.626;18.866;2023-08-07T10:40:11;99896.84;;;25.47;37.34
58072;BME280;60383;46.626;18.866;2023-08-07T10:45:22;99896.59;;;26.02;35.99
58072;BME280;60383;46.626;18.866;2023-08-07T10:48:12;99902.53;;;26.11;35.78
58072;BME280;60383;46.626;18.866;2023-08-07T10:53:44;99897.59;;;26.39;34.69
58072;BME280;60383;46.626;18.866;2023-08-07T10:56:29;99897.88;;;26.32;36.04
58072;BME280;60383;46.626;18.866;2023-08-07T10:58:55;99901.50;;;26.27;34.18
58072;BME280;60383;46.626;18.866;2023-08-07T11:03:57;99898.91;;;26.15;34.39
58072;BME280;60383;46.626;18.866;2023-08-07T11:06:30;99902.34;;;26.33;35.91
58072;BME280;60383;46.626;18.866;2023-08-07T11:09:00;99903.72;;;26.25;34.77
58072;BME280;60383;46.626;18.866;2023-08-07T11:11:39;99913.56;;;26.33;36.59
58072;BME280;60383;46.626;18.866;2023-08-07T11:14:06;99922.84;;;26.28;37.10
58072;BME280;60383;46.626;18.866;2023-08-07T11:16:33;99919.81;;;26.45;38.37
58072;BME280;60383;46.626;18.866;2023-08-07T11:18:58;99942.84;;;25.99;38.55
58072;BME280;60383;46.626;18.866;2023-08-07T11:21:25;99933.63;;;26.04;40.12
58072;BME280;60383;46.626;18.866;2023-08-07T11:23:50;99944.28;;;25.27;41.32
58072;BME280;60383;46.626;18.866;2023-08-07T11:26:16;99952.38;;;24.96;43.49
58072;BME280;60383;46.626;18.866;2023-08-07T11:28:42;99968.66;;;24.49;44.32
58072;BME280;60383;46.626;18.866;2023-08-07T11:31:08;99969.06;;;24.80;44.29
58072;BME280;60383;46.626;18.866;2023-08-07T11:33:35;99974.81;;;24.68;44.89
58072;BME280;60383;46.626;18.866;2023-08-07T11:36:01;99975.06;;;24.67;44.90
58072;BME280;60383;46.626;18.866;2023-08-07T11:38:34;99987.00;;;24.18;45.81
58072;BME280;60383;46.626;18.866;2023-08-07T11:41:01;99986.81;;;24.24;45.63
58072;BME280;60383;46.626;18.866;2023-08-07T11:43:28;100002.22;;;24.05;47.57
58072;BME280;60383;46.626;18.866;2023-08-07T11:45:56;99998.09;;;23.56;47.51
58072;BME280;60383;46.626;18.866;2023-08-07T11:48:27;100000.88;;;23.22;48.80
58072;BME280;60383;46.626;18.866;2023-08-07T11:50:53;99992.66;;;23.33;48.56
58072;BME280;60383;46.626;18.866;2023-08-07T11:53:26;99999.53;;;23.76;47.73
58072;BME280;60383;46.626;18.866;2023-08-07T11:55:56;100001.34;;;24.04;46.65
58072;BME280;60383;46.626;18.866;2023-08-07T11:58:24;100011.00;;;24.14;47.20
58072;BME280;60383;46.626;18.866;2023-08-07T12:00:50;100006.06;;;23.99;45.12
58072;BME280;60383;46.626;18.866;2023-08-07T12:03:29;100017.53;;;24.19;45.75
58072;BME280;60383;46.626;18.866;2023-08-07T12:05:56;100005.44;;;23.97;45.37
58072;BME280;60383;46.626;18.866;2023-08-07T12:08:22;100013.56;;;24.37;46.25
58072;BME280;60383;46.626;18.866;2023-08-07T12:10:53;100011.28;;;24.34;45.38
58072;BME280;60383;46.626;18.866;2023-08-07T12:13:25;100010.25;;;24.40;45.84
58072;BME280;60383;46.626;18.866;2023-08-07T12:15:55;100021.13;;;24.59;44.38
58072;BME280;60383;46.626;18.866;2023-08-07T12:18:22;100023.31;;;24.35;45.58
58072;BME280;60383;46.626;18.866;2023-08-07T12:20:51;100026.97;;;24.58;44.65
58072;BME280;60383;46.626;18.866;2023-08-07T12:23:18;100021.44;;;24.40;45.06
58072;BME280;60383;46.626;18.866;2023-08-07T12:25:44;100037.22;;;24.07;43.45
58072;BME280;60383;46.626;18.866;2023-08-07T12:28:10;100034.16;;;23.75;44.26
58072;BME280;60383;46.626;18.866;2023-08-07T12:30:36;100030.19;;;24.05;44.70
58072;BME280;60383;46.626;18.866;2023-08-07T12:33:02;100047.91;;;23.93;44.70
58072;BME280;60383;46.626;18.866;2023-08-07T12:35:31;100035.50;;;23.89;44.17
58072;BME280;60383;46.626;18.866;2023-08-07T12:37:57;100038.72;;;24.15;42.80
58072;BME280;60383;46.626;18.866;2023-08-07T12:40:22;100044.59;;;24.36;43.82
58072;BME280;60383;46.626;18.866;2023-08-07T12:42:51;100047.41;;;23.97;43.42
58072;BME280;60383;46.626;18.866;2023-08-07T12:45:17;100042.06;;;23.78;43.90
58072;BME280;60383;46.626;18.866;2023-08-07T12:47:44;100037.72;;;23.53;43.84
58072;BME280;60383;46.626;18.866;2023-08-07T12:50:09;100036.34;;;23.56;43.26
58072;BME280;60383;46.626;18.866;2023-08-07T12:52:35;100045.84;;;23.72;42.94
58072;BME280;60383;46.626;18.866;2023-08-07T12:55:00;100044.63;;;23.34;43.46
58072;BME280;60383;46.626;18.866;2023-08-07T12:57:26;100037.34;;;23.33;43.22